Yankton, SD

4:24 PM CDT on September 01, 2014 (GMT -0500)
Gurney Municipal | Change Station
CLOSE
Current Station
Airport
Location: Yankton,
Elevation: 1306 ft
Nearby Weather Stations

Elev 1306 ft 42.92 °N, 97.39 °W | Updated 9 minutes ago

Clear
Clear
79 °F
Feels Like 79 °F
N
12
Wind Variable Wind from NW

Today
High -- | Low -- °F
--% Chance of Precip.
Yesterday
High -- | Low -- °F
Precip. -- in
6:54 AM 8:04 PM
Waxing Crescent, 44% visible
Pressure 29.84 in
Visibility 10.0 miles
Clouds Clear
Dew Point 54 °F
Humidity 42%
Rainfall 0.00 in
Snow Depth Not available.
UV 5 out of 12
Pollen 7.80 out of 12
Air Quality Not available.
Flu Activity Not available.
METAR KYKN 012115Z AUTO 31010KT 10SM CLR 26/12 A2984 RMK AO1

More Conditions Fewer Conditions

Pressure 29.84 in
Visibility 10.0 miles
Clouds Clear
Dew Point 54 °F
Humidity 42%
Rainfall 0.00 in
Snow Depth Not available.
UV 5 out of 12
Pollen 7.80 out of 12
Air Quality Not available.
Flu Activity Not available.
METAR KYKN 012115Z AUTO 31010KT 10SM CLR 26/12 A2984 RMK AO1

More Conditions Fewer Conditions

10-Day Weather Forecast

Almanac

Astronomy

Sep. 01, 2014 Rise Set
Actual Time 6:54 AM CDT 8:04 PM CDT
Civil Twilight 6:25 AM CDT 8:33 PM CDT
Nautical Twilight 5:50 AM CDT 9:07 PM CDT
Astronomical Twilight 5:13 AM CDT 9:44 PM CDT
Moon 1:51 PM CDT 11:56 PM CDT
Length of Visible Light 14h 08m
Length of Day
13h 09m
Tomorrow will be 2m 49s shorter.
Waxing Crescent, 44% of the Moon is Illuminated
Today
Waxing Crescent
Sep 2
First Quarter
Sep 8
Full
Sep 15
Last Quarter
Sep 24
New

Today's Extremes

State Highs State Lows

Community

WunderPhotos

Upload Photos

1,749,413 photos uploaded!

WunderBlogs® & News

Nearby

Snow Depth

Station Depth Elevation
Blind Park 0 in 6890 ft

Earthquake Activity

City Distance Mag. Time & Date
No recent earthquake activity has been reported nearby.
Minimum magnitude displayed is 2.5.

Coastal Water Temperatures

Place Temperature
No Stations Reporting

Nearby Weather Stations